createdAt,value
2022-11-29T00:00:16.339Z,0.34
2022-11-29T00:03:04.919Z,0.34
2022-11-29T00:05:36.451Z,0.34
2022-11-29T00:08:05.193Z,0.30
2022-11-29T00:10:36.659Z,0.27
2022-11-29T00:13:05.686Z,0.25
2022-11-29T00:15:37.206Z,0.24
2022-11-29T00:18:07.208Z,0.23
2022-11-29T00:20:36.131Z,0.26
2022-11-29T00:23:05.087Z,0.30
2022-11-29T00:25:33.651Z,0.33
2022-11-29T00:28:02.125Z,0.33
2022-11-29T00:30:30.576Z,0.34
2022-11-29T00:32:59.220Z,0.35
2022-11-29T00:35:27.628Z,0.32
2022-11-29T00:37:55.989Z,0.28
2022-11-29T00:40:24.566Z,0.26
2022-11-29T00:42:53.053Z,0.27
2022-11-29T00:45:21.470Z,0.28
2022-11-29T00:47:50.045Z,0.31
2022-11-29T00:50:19.479Z,0.34
2022-11-29T00:52:47.835Z,0.35
2022-11-29T00:55:19.120Z,0.36
2022-11-29T00:57:47.553Z,0.35
2022-11-29T01:00:18.060Z,0.33
2022-11-29T01:02:46.804Z,0.31
2022-11-29T01:05:16.102Z,0.28
2022-11-29T01:07:44.821Z,0.27
2022-11-29T01:10:13.562Z,0.27
2022-11-29T01:12:42.818Z,0.27
2022-11-29T01:15:12.560Z,0.29
2022-11-29T01:17:42.059Z,0.32
2022-11-29T01:20:13.658Z,0.34
2022-11-29T01:22:44.433Z,0.35
2022-11-29T01:25:14.909Z,0.35
2022-11-29T01:27:44.400Z,0.37
2022-11-29T01:30:31.224Z,0.36
2022-11-29T01:32:59.731Z,0.32
2022-11-29T01:35:28.255Z,0.30
2022-11-29T01:37:56.841Z,0.29
2022-11-29T01:40:25.229Z,0.31
2022-11-29T01:42:53.476Z,0.34
2022-11-29T01:45:24.571Z,0.36
2022-11-29T01:47:56.628Z,0.37
2022-11-29T01:50:25.842Z,0.36
2022-11-29T01:52:54.430Z,0.36
2022-11-29T01:58:30.471Z,0.34
2022-11-29T02:01:00.825Z,0.31
2022-11-29T02:03:29.969Z,0.28
2022-11-29T02:05:58.886Z,0.25
2022-11-29T02:08:33.268Z,0.27
2022-11-29T02:11:24.508Z,0.29
2022-11-29T02:14:05.442Z,0.30
2022-11-29T02:16:43.783Z,0.32
2022-11-29T02:19:29.950Z,0.34
2022-11-29T02:22:02.864Z,0.36
2022-11-29T02:24:56.136Z,0.34
2022-11-29T02:28:14.775Z,0.34
2022-11-29T02:31:13.708Z,0.32
2022-11-29T02:34:20.968Z,0.28
2022-11-29T02:37:07.188Z,0.25
2022-11-29T02:40:09.231Z,0.23
2022-11-29T02:43:00.795Z,0.26
2022-11-29T02:45:46.496Z,0.30
2022-11-29T02:48:45.337Z,0.32
2022-11-29T02:51:22.468Z,0.34
2022-11-29T02:53:58.389Z,0.36
2022-11-29T02:56:36.171Z,0.37
2022-11-29T02:59:13.435Z,0.39
2022-11-29T03:01:52.101Z,0.38
2022-11-29T03:04:31.626Z,0.37
2022-11-29T03:07:10.308Z,0.35
2022-11-29T03:09:39.475Z,0.33
2022-11-29T03:12:19.073Z,0.34
2022-11-29T03:14:57.246Z,0.35
2022-11-29T03:17:37.616Z,0.35
2022-11-29T03:20:23.289Z,0.36
2022-11-29T03:23:08.653Z,0.40
2022-11-29T03:25:40.473Z,0.42
2022-11-29T03:28:14.995Z,0.42
2022-11-29T03:30:50.592Z,0.42
2022-11-29T03:33:26.775Z,0.42
2022-11-29T03:36:03.584Z,0.40
2022-11-29T03:38:39.226Z,0.35
2022-11-29T03:41:17.544Z,0.33
2022-11-29T03:43:52.906Z,0.34
2022-11-29T03:46:29.784Z,0.36
2022-11-29T03:49:03.673Z,0.39
2022-11-29T03:51:45.216Z,0.41
2022-11-29T03:54:21.017Z,0.40
2022-11-29T03:56:50.638Z,0.38
2022-11-29T03:59:44.647Z,0.37
2022-11-29T04:02:45.015Z,0.34
2022-11-29T04:05:28.482Z,0.32
2022-11-29T04:08:32.662Z,0.34
2022-11-29T04:11:33.377Z,0.39
2022-11-29T04:14:29.060Z,0.41
2022-11-29T04:17:47.458Z,0.41
2022-11-29T04:20:55.238Z,0.39
2022-11-29T04:24:04.896Z,0.37
2022-11-29T04:26:59.375Z,0.35
2022-11-29T04:29:55.231Z,0.32
2022-11-29T04:32:58.882Z,0.30
2022-11-29T04:35:38.807Z,0.30
2022-11-29T04:38:38.502Z,0.31
2022-11-29T04:41:19.259Z,0.33
2022-11-29T04:44:07.386Z,0.35
2022-11-29T04:47:12.077Z,0.37
2022-11-29T04:49:58.841Z,0.39
2022-11-29T04:52:49.180Z,0.39
2022-11-29T04:55:31.202Z,0.38
2022-11-29T04:58:11.293Z,0.36
2022-11-29T05:00:47.900Z,0.33
2022-11-29T05:03:27.952Z,0.28
2022-11-29T05:06:03.090Z,0.23
2022-11-29T05:08:44.990Z,0.22
2022-11-29T05:11:26.661Z,0.23
2022-11-29T05:14:03.352Z,0.26
2022-11-29T05:16:43.368Z,0.29
2022-11-29T05:19:26.943Z,0.31
2022-11-29T05:22:07.792Z,0.32
2022-11-29T05:24:51.708Z,0.32
2022-11-29T05:27:28.141Z,0.30
2022-11-29T05:30:03.655Z,0.28
2022-11-29T05:32:38.270Z,0.26
2022-11-29T05:35:32.724Z,0.24
2022-11-29T05:38:08.811Z,0.26
2022-11-29T05:40:50.878Z,0.29
2022-11-29T05:43:43.593Z,0.31
2022-11-29T05:46:19.945Z,0.33
2022-11-29T05:48:56.702Z,0.36
2022-11-29T05:51:37.858Z,0.39
2022-11-29T05:54:16.162Z,0.40
2022-11-29T05:56:48.318Z,0.38
2022-11-29T05:59:21.627Z,0.36
2022-11-29T06:02:03.166Z,0.33
2022-11-29T06:04:48.474Z,0.33
2022-11-29T06:07:24.548Z,0.33
2022-11-29T06:10:01.835Z,0.35
2022-11-29T06:12:35.459Z,0.37
2022-11-29T06:15:24.061Z,0.40
2022-11-29T06:18:06.927Z,0.40
2022-11-29T06:20:50.278Z,0.40
2022-11-29T06:24:05.485Z,0.38
2022-11-29T06:26:51.405Z,0.34
2022-11-29T06:29:29.804Z,0.33
2022-11-29T06:32:08.103Z,0.36
2022-11-29T06:34:47.467Z,0.39
2022-11-29T06:37:22.985Z,0.42
2022-11-29T06:39:53.523Z,0.46
2022-11-29T06:42:22.310Z,0.45
2022-11-29T06:44:51.704Z,0.45
2022-11-29T06:47:27.874Z,0.44
2022-11-29T06:50:03.114Z,0.42
2022-11-29T06:52:41.197Z,0.39
2022-11-29T06:55:18.505Z,0.40
2022-11-29T06:58:01.839Z,0.42
2022-11-29T07:00:39.210Z,0.44
2022-11-29T07:03:23.272Z,0.48
2022-11-29T07:05:53.052Z,0.52
2022-11-29T07:08:23.771Z,0.53
2022-11-29T07:10:55.173Z,0.54
2022-11-29T07:13:24.490Z,0.54
2022-11-29T07:15:59.683Z,0.52
2022-11-29T07:18:38.136Z,0.50
2022-11-29T07:21:18.694Z,0.51
2022-11-29T07:23:55.873Z,0.55
2022-11-29T07:26:29.731Z,0.58
2022-11-29T07:29:20.616Z,0.60
2022-11-29T07:31:59.286Z,0.62
2022-11-29T07:34:38.354Z,0.64
2022-11-29T07:37:13.885Z,0.64
2022-11-29T07:39:49.747Z,0.62
2022-11-29T07:42:25.611Z,0.59
2022-11-29T07:45:09.338Z,0.57
2022-11-29T07:47:37.693Z,0.57
2022-11-29T07:50:09.931Z,0.59
2022-11-29T07:52:38.588Z,0.60
2022-11-29T07:55:18.316Z,0.63
2022-11-29T07:57:47.578Z,0.67
2022-11-29T08:00:18.501Z,0.69
2022-11-29T08:02:48.876Z,0.69
2022-11-29T08:05:18.608Z,0.68
2022-11-29T08:07:47.348Z,0.68
2022-11-29T08:10:17.230Z,0.68
2022-11-29T08:12:47.679Z,0.69
2022-11-29T08:15:16.571Z,0.70
2022-11-29T08:17:45.937Z,0.73
2022-11-29T08:20:16.084Z,0.77
2022-11-29T08:22:45.056Z,0.80
2022-11-29T08:25:13.572Z,0.83
2022-11-29T08:27:42.564Z,0.86
2022-11-29T08:30:12.127Z,0.86
2022-11-29T08:32:40.523Z,0.86
2022-11-29T08:35:11.538Z,0.84
2022-11-29T08:37:40.055Z,0.84
2022-11-29T08:40:12.086Z,0.84
2022-11-29T08:42:40.615Z,0.82
2022-11-29T08:45:11.145Z,0.82
2022-11-29T08:47:42.616Z,0.84
2022-11-29T08:50:15.025Z,0.88
2022-11-29T08:53:03.712Z,0.93
2022-11-29T08:55:34.858Z,0.97
2022-11-29T08:58:05.793Z,0.99
2022-11-29T09:00:35.284Z,1.01
2022-11-29T09:03:23.830Z,1.00
2022-11-29T09:05:52.336Z,0.97
2022-11-29T09:08:21.445Z,0.97
2022-11-29T09:10:49.877Z,0.97
2022-11-29T09:13:18.579Z,0.97
2022-11-29T09:15:47.116Z,0.97
2022-11-29T09:18:15.855Z,1.00
2022-11-29T09:20:46.677Z,1.04
2022-11-29T09:23:15.521Z,1.10
2022-11-29T09:25:50.050Z,1.14
2022-11-29T09:28:18.676Z,1.14
2022-11-29T09:30:47.006Z,1.16
2022-11-29T09:33:15.462Z,1.15
2022-11-29T09:35:44.868Z,1.14
2022-11-29T09:38:14.187Z,1.13
2022-11-29T09:40:50.115Z,1.16
2022-11-29T09:43:29.765Z,1.21
2022-11-29T09:46:21.718Z,1.25
2022-11-29T09:49:09.930Z,1.30
2022-11-29T09:51:49.617Z,1.34
2022-11-29T09:54:30.554Z,1.33
2022-11-29T09:56:59.631Z,1.31
2022-11-29T09:59:33.156Z,1.30
2022-11-29T10:02:14.852Z,1.31
2022-11-29T10:04:53.493Z,1.34
2022-11-29T10:07:29.716Z,1.36
2022-11-29T10:10:04.293Z,1.38
2022-11-29T10:12:37.735Z,1.44
2022-11-29T10:15:13.468Z,1.49
2022-11-29T10:17:50.862Z,1.51
2022-11-29T10:20:22.494Z,1.52
2022-11-29T10:22:55.607Z,1.53
2022-11-29T10:25:28.451Z,1.50
2022-11-29T10:27:57.558Z,1.49
2022-11-29T10:30:26.315Z,1.50
2022-11-29T10:33:00.105Z,1.54
2022-11-29T10:35:29.999Z,1.56
2022-11-29T10:40:57.603Z,1.61
2022-11-29T10:43:26.723Z,1.61
2022-11-29T10:45:55.992Z,1.59
2022-11-29T10:48:36.860Z,1.57
2022-11-29T10:51:15.919Z,1.57
2022-11-29T10:53:48.349Z,1.55
2022-11-29T10:56:23.647Z,1.54
2022-11-29T10:58:58.225Z,1.55
2022-11-29T11:01:28.526Z,1.59
2022-11-29T11:03:59.993Z,1.58
2022-11-29T11:06:44.223Z,1.59
2022-11-29T11:09:19.830Z,1.59
2022-11-29T11:11:53.294Z,1.58
2022-11-29T11:14:24.232Z,1.57
2022-11-29T11:16:53.475Z,1.57
2022-11-29T11:19:27.646Z,1.55
2022-11-29T11:21:57.665Z,1.55
2022-11-29T11:24:28.832Z,1.57
2022-11-29T11:26:58.845Z,1.58
2022-11-29T11:29:34.433Z,1.57
2022-11-29T11:32:04.844Z,1.59
2022-11-29T11:34:35.695Z,1.61
2022-11-29T11:37:22.990Z,1.62
2022-11-29T11:39:53.440Z,1.61
2022-11-29T11:42:37.932Z,1.59
2022-11-29T11:45:25.515Z,1.56
2022-11-29T11:47:57.674Z,1.55
2022-11-29T11:50:33.391Z,1.53
2022-11-29T11:53:05.475Z,1.53
2022-11-29T11:55:37.519Z,1.53
2022-11-29T11:58:18.384Z,1.53
2022-11-29T12:01:07.353Z,1.55
2022-11-29T12:03:44.692Z,1.58
2022-11-29T12:06:34.934Z,1.59
2022-11-29T12:09:10.448Z,1.59
2022-11-29T12:11:45.024Z,1.56
2022-11-29T12:14:23.846Z,1.53
2022-11-29T12:16:59.590Z,1.50
2022-11-29T12:19:35.366Z,1.46
2022-11-29T12:22:12.543Z,1.44
2022-11-29T12:24:49.603Z,1.41
2022-11-29T12:27:18.184Z,1.40
2022-11-29T12:29:46.876Z,1.42
2022-11-29T12:32:31.189Z,1.42
2022-11-29T12:35:28.189Z,1.42
2022-11-29T12:38:06.095Z,1.41
2022-11-29T12:40:45.492Z,1.40
2022-11-29T12:43:28.037Z,1.37
2022-11-29T12:46:07.956Z,1.33
2022-11-29T12:48:49.623Z,1.30
2022-11-29T12:51:27.479Z,1.27
2022-11-29T12:54:11.525Z,1.25
2022-11-29T12:56:49.877Z,1.24
2022-11-29T12:59:31.876Z,1.26
2022-11-29T13:02:20.831Z,1.29
2022-11-29T13:04:59.970Z,1.33
2022-11-29T13:07:40.963Z,1.35
2022-11-29T13:10:24.019Z,1.34
2022-11-29T13:12:55.607Z,1.31
2022-11-29T13:15:30.693Z,1.29
2022-11-29T13:18:03.548Z,1.27
2022-11-29T13:20:38.421Z,1.23
2022-11-29T13:23:16.415Z,1.20
2022-11-29T13:25:50.356Z,1.18
2022-11-29T13:28:25.099Z,1.19
2022-11-29T13:30:59.220Z,1.20
2022-11-29T13:33:33.189Z,1.21
2022-11-29T13:36:13.076Z,1.19
2022-11-29T13:38:50.672Z,1.16
2022-11-29T13:41:28.887Z,1.14
2022-11-29T13:44:05.118Z,1.10
2022-11-29T13:46:43.231Z,1.05
2022-11-29T13:49:23.263Z,1.04
2022-11-29T13:52:05.432Z,1.05
2022-11-29T13:54:34.297Z,1.07
2022-11-29T13:57:05.381Z,1.10
2022-11-29T13:59:36.725Z,1.11
2022-11-29T14:02:27.049Z,1.11
2022-11-29T14:04:55.939Z,1.12
2022-11-29T14:07:24.358Z,1.10
2022-11-29T14:09:59.902Z,1.09
2022-11-29T14:12:37.845Z,1.06
2022-11-29T14:15:21.510Z,1.02
2022-11-29T14:17:53.575Z,0.98
2022-11-29T14:20:58.270Z,0.93
2022-11-29T14:23:42.281Z,0.92
2022-11-29T14:26:35.135Z,0.95
2022-11-29T14:29:44.268Z,0.98
2022-11-29T14:32:22.683Z,1.00
2022-11-29T14:34:56.045Z,1.02
2022-11-29T14:37:39.639Z,1.00
2022-11-29T14:40:26.187Z,0.97
2022-11-29T14:42:55.139Z,0.94
2022-11-29T14:45:27.151Z,0.90
2022-11-29T14:47:56.243Z,0.88
2022-11-29T14:50:33.741Z,0.86
2022-11-29T14:53:03.093Z,0.84
2022-11-29T14:55:35.092Z,0.83
2022-11-29T14:58:21.872Z,0.83
2022-11-29T15:01:06.378Z,0.84
2022-11-29T15:03:48.889Z,0.86
2022-11-29T15:06:27.842Z,0.87
2022-11-29T15:09:02.763Z,0.87
2022-11-29T15:11:47.208Z,0.86
2022-11-29T15:14:22.990Z,0.85
2022-11-29T15:17:09.790Z,0.84
2022-11-29T15:19:57.684Z,0.83
2022-11-29T15:22:44.315Z,0.79
2022-11-29T15:25:16.619Z,0.78
2022-11-29T15:27:53.265Z,0.78
2022-11-29T15:30:30.041Z,0.81
2022-11-29T15:33:00.173Z,0.82
2022-11-29T15:35:29.442Z,0.84
2022-11-29T15:37:57.982Z,0.87
2022-11-29T15:40:34.507Z,0.86
2022-11-29T15:43:16.537Z,0.86
2022-11-29T15:45:49.089Z,0.84
2022-11-29T15:48:20.460Z,0.81
2022-11-29T15:51:04.499Z,0.80
2022-11-29T15:53:37.776Z,0.77
2022-11-29T15:56:13.677Z,0.76
2022-11-29T15:58:45.833Z,0.76
2022-11-29T16:01:19.279Z,0.77
2022-11-29T16:03:51.117Z,0.80
2022-11-29T16:06:27.824Z,0.84
2022-11-29T16:08:56.733Z,0.86
2022-11-29T16:11:30.572Z,0.86
2022-11-29T16:14:12.984Z,0.83
2022-11-29T16:16:45.746Z,0.81
2022-11-29T16:19:29.559Z,0.80
2022-11-29T16:22:08.207Z,0.78
2022-11-29T16:24:38.520Z,0.79
2022-11-29T16:27:07.647Z,0.80
2022-11-29T16:29:45.190Z,0.82
2022-11-29T16:32:20.334Z,0.84
2022-11-29T16:34:49.632Z,0.84
2022-11-29T16:37:21.611Z,0.83
2022-11-29T16:39:52.386Z,0.84
2022-11-29T16:42:25.761Z,0.83
2022-11-29T16:45:04.396Z,0.82
2022-11-29T16:47:51.907Z,0.79
2022-11-29T16:50:22.248Z,0.76
2022-11-29T16:52:56.265Z,0.75
2022-11-29T16:55:25.658Z,0.75
2022-11-29T16:57:54.208Z,0.76
2022-11-29T17:00:29.803Z,0.80
2022-11-29T17:02:59.053Z,0.83
2022-11-29T17:05:28.619Z,0.83
2022-11-29T17:08:00.891Z,0.82
2022-11-29T17:10:29.457Z,0.80
2022-11-29T17:12:57.787Z,0.79
2022-11-29T17:15:26.682Z,0.76
2022-11-29T17:17:55.302Z,0.75
2022-11-29T17:20:23.859Z,0.73
2022-11-29T17:22:52.680Z,0.72
2022-11-29T17:25:21.208Z,0.73
2022-11-29T17:27:49.813Z,0.74
2022-11-29T17:30:18.902Z,0.75
2022-11-29T17:32:47.451Z,0.77
2022-11-29T17:35:16.477Z,0.79
2022-11-29T17:37:46.342Z,0.80
2022-11-29T17:40:15.243Z,0.80
2022-11-29T17:42:45.460Z,0.81
2022-11-29T17:45:14.442Z,0.79
2022-11-29T17:47:42.768Z,0.77
2022-11-29T17:50:12.426Z,0.74
2022-11-29T17:52:41.690Z,0.72
2022-11-29T17:55:10.586Z,0.72
2022-11-29T17:57:42.356Z,0.73
2022-11-29T18:00:14.848Z,0.77
2022-11-29T18:02:43.547Z,0.81
2022-11-29T18:05:13.150Z,0.85
2022-11-29T18:07:57.256Z,0.87
2022-11-29T18:10:26.517Z,0.86
2022-11-29T18:12:54.858Z,0.86
2022-11-29T18:15:23.393Z,0.85
2022-11-29T18:17:51.915Z,0.83
2022-11-29T18:20:20.198Z,0.81
2022-11-29T18:22:52.713Z,0.79
2022-11-29T18:25:43.664Z,0.76
2022-11-29T18:28:10.849Z,0.75
2022-11-29T18:30:39.588Z,0.77
2022-11-29T18:33:08.437Z,0.79
2022-11-29T18:35:37.330Z,0.82
2022-11-29T18:38:21.180Z,0.82
2022-11-29T18:40:49.625Z,0.81
2022-11-29T18:43:18.239Z,0.80
2022-11-29T18:45:47.177Z,0.79
2022-11-29T18:48:15.562Z,0.77
2022-11-29T18:50:44.529Z,0.75
2022-11-29T18:53:13.990Z,0.72
2022-11-29T18:55:42.449Z,0.70
2022-11-29T18:58:11.025Z,0.70
2022-11-29T19:00:40.293Z,0.73
2022-11-29T19:03:08.549Z,0.75
2022-11-29T19:05:37.136Z,0.77
2022-11-29T19:08:05.791Z,0.79
2022-11-29T19:10:37.047Z,0.79
2022-11-29T19:13:05.774Z,0.79
2022-11-29T19:15:34.160Z,0.79
2022-11-29T19:18:02.512Z,0.80
2022-11-29T19:20:34.323Z,0.80
2022-11-29T19:23:03.035Z,0.78
2022-11-29T19:25:34.592Z,0.76
2022-11-29T19:28:02.899Z,0.75
2022-11-29T19:30:31.936Z,0.75
2022-11-29T19:33:00.525Z,0.79
2022-11-29T19:35:29.020Z,0.82
2022-11-29T19:37:58.406Z,0.85
2022-11-29T19:40:27.228Z,0.85
2022-11-29T19:42:55.681Z,0.85
2022-11-29T19:45:26.650Z,0.86
2022-11-29T19:47:55.256Z,0.85
2022-11-29T19:50:24.283Z,0.81
2022-11-29T19:52:52.669Z,0.79
2022-11-29T19:55:21.166Z,0.75
2022-11-29T19:57:49.455Z,0.73
2022-11-29T20:00:20.723Z,0.74
2022-11-29T20:02:49.243Z,0.76
2022-11-29T20:05:17.995Z,0.78
2022-11-29T20:07:47.364Z,0.79
2022-11-29T20:10:16.132Z,0.81
2022-11-29T20:12:44.474Z,0.78
2022-11-29T20:15:12.808Z,0.76
2022-11-29T20:17:41.171Z,0.73
2022-11-29T20:20:13.243Z,0.71
2022-11-29T20:22:41.661Z,0.68
2022-11-29T20:25:11.820Z,0.66
2022-11-29T20:27:40.171Z,0.64
2022-11-29T20:30:11.074Z,0.64
2022-11-29T20:32:40.115Z,0.66
2022-11-29T20:35:12.886Z,0.68
2022-11-29T20:38:03.333Z,0.70
2022-11-29T20:40:39.601Z,0.73
2022-11-29T20:43:13.354Z,0.73
2022-11-29T20:45:43.373Z,0.73
2022-11-29T20:48:17.026Z,0.72
2022-11-29T20:50:51.188Z,0.70
2022-11-29T20:53:30.614Z,0.67
2022-11-29T20:55:59.310Z,0.64
2022-11-29T20:58:27.769Z,0.62
2022-11-29T21:00:57.191Z,0.59
2022-11-29T21:03:27.308Z,0.58
2022-11-29T21:05:56.763Z,0.59
2022-11-29T21:08:27.064Z,0.60
2022-11-29T21:11:00.902Z,0.64
2022-11-29T21:13:30.428Z,0.66
2022-11-29T21:16:00.001Z,0.65
2022-11-29T21:18:30.648Z,0.63
2022-11-29T21:21:06.944Z,0.58
2022-11-29T21:23:48.251Z,0.54
2022-11-29T21:26:20.396Z,0.50
2022-11-29T21:29:04.833Z,0.48
2022-11-29T21:31:36.494Z,0.47
2022-11-29T21:34:05.122Z,0.47
2022-11-29T21:36:34.207Z,0.49
2022-11-29T21:39:05.260Z,0.53
2022-11-29T21:41:35.027Z,0.55
2022-11-29T21:44:07.969Z,0.56
2022-11-29T21:46:37.783Z,0.55
2022-11-29T21:49:06.092Z,0.52
2022-11-29T21:51:34.636Z,0.48
2022-11-29T21:54:03.863Z,0.46
2022-11-29T21:56:32.762Z,0.43
2022-11-29T21:59:01.452Z,0.40
2022-11-29T22:01:29.983Z,0.40
2022-11-29T22:03:58.439Z,0.41
2022-11-29T22:06:28.756Z,0.41
2022-11-29T22:08:57.147Z,0.42
2022-11-29T22:11:30.332Z,0.44
2022-11-29T22:14:15.519Z,0.46
2022-11-29T22:16:46.643Z,0.47
2022-11-29T22:19:17.418Z,0.46
2022-11-29T22:21:50.889Z,0.45
2022-11-29T22:24:21.498Z,0.42
2022-11-29T22:26:51.115Z,0.39
2022-11-29T22:29:19.816Z,0.37
2022-11-29T22:31:53.318Z,0.34
2022-11-29T22:34:24.531Z,0.34
2022-11-29T22:36:54.161Z,0.35
2022-11-29T22:39:24.363Z,0.37
2022-11-29T22:41:55.078Z,0.39
2022-11-29T22:44:24.095Z,0.41
2022-11-29T22:46:52.747Z,0.44
2022-11-29T22:49:21.359Z,0.44
2022-11-29T22:51:51.687Z,0.42
2022-11-29T22:54:20.079Z,0.41
2022-11-29T22:56:51.838Z,0.39
2022-11-29T22:59:20.411Z,0.37
2022-11-29T23:01:49.142Z,0.34
2022-11-29T23:04:17.503Z,0.34
2022-11-29T23:06:46.483Z,0.35
2022-11-29T23:09:18.488Z,0.39
2022-11-29T23:11:52.240Z,0.44
2022-11-29T23:14:22.487Z,0.47
2022-11-29T23:16:52.557Z,0.48
2022-11-29T23:19:21.372Z,0.48
2022-11-29T23:21:51.894Z,0.46
2022-11-29T23:24:20.319Z,0.45
2022-11-29T23:26:49.437Z,0.42
2022-11-29T23:29:19.256Z,0.38
2022-11-29T23:31:50.619Z,0.36
2022-11-29T23:34:19.450Z,0.34
2022-11-29T23:36:52.670Z,0.32
2022-11-29T23:39:22.226Z,0.33
2022-11-29T23:41:52.365Z,0.35
2022-11-29T23:44:24.419Z,0.38
2022-11-29T23:46:52.924Z,0.42
2022-11-29T23:49:21.820Z,0.42
2022-11-29T23:51:51.794Z,0.41
2022-11-29T23:54:23.489Z,0.41
2022-11-29T23:56:51.938Z,0.37
2022-11-29T23:59:21.184Z,0.34
